Time;durP1;ratioP1;P1;durP2;ratioP2;P2;SDS_P1;SDS_P2;PMS_P1;PMS_P2;Temp;Humidity;BMP_temperature;BMP_pressure;BME280_temperature;BME280_humidity;BME280_pressure;Samples;Min_cycle;Max_cycle;Signal;HPM_P1;HPM_P2
2023/09/30 00:02:27;;;;;;;35.25;10.95;;;;;;;;;;6337992;22;20010;-55
2023/09/30 00:04:54;;;;;;;28.30;9.80;;;;;;;;;;6338242;22;20029;-53
2023/09/30 00:07:21;;;;;;;34.28;9.88;;;;;;;;;;6337737;22;20341;-51
2023/09/30 00:09:48;;;;;;;37.13;10.48;;;;;;;;;;6310596;22;20366;-56
2023/09/30 00:12:15;;;;;;;44.95;11.30;;;;;;;;;;6338033;22;20015;-60
2023/09/30 00:14:41;;;;;;;23.40;9.98;;;;;;;;;;6338363;22;20076;-48
2023/09/30 00:17:08;;;;;;;36.67;11.40;;;;;;;;;;6337329;22;20310;-58
2023/09/30 00:19:34;;;;;;;32.05;10.27;;;;;;;;;;6337870;22;20014;-57
2023/09/30 00:22:01;;;;;;;44.00;10.70;;;;;;;;;;6337960;22;20322;-57
2023/09/30 00:24:28;;;;;;;76.25;13.30;;;;;;;;;;6337500;22;20014;-58
2023/09/30 00:26:56;;;;;;;29.65;9.65;;;;;;;;;;6338469;22;20018;-58
2023/09/30 00:29:23;;;;;;;27.60;9.93;;;;;;;;;;6337893;22;20082;-55
2023/09/30 00:31:49;;;;;;;43.88;10.82;;;;;;;;;;6337987;22;20068;-51
2023/09/30 00:34:16;;;;;;;28.75;9.90;;;;;;;;;;6310470;22;20060;-58
2023/09/30 00:36:43;;;;;;;41.35;10.85;;;;;;;;;;6337477;22;20045;-55
2023/09/30 00:39:10;;;;;;;32.10;9.75;;;;;;;;;;6338090;22;20015;-57
2023/09/30 00:41:40;;;;;;;32.70;10.23;;;;;;;;;;6337974;22;20012;-56
2023/09/30 00:44:10;;;;;;;27.90;10.18;;;;;;;;;;6337424;22;20018;-53
2023/09/30 00:46:37;;;;;;;32.78;10.07;;;;;;;;;;6337407;22;20087;-53
2023/09/30 00:49:04;;;;;;;28.30;9.98;;;;;;;;;;6309893;22;20444;-56
2023/09/30 00:51:32;;;;;;;75.57;12.82;;;;;;;;;;6309888;22;20354;-54
2023/09/30 00:54:00;;;;;;;23.88;9.23;;;;;;;;;;6337964;22;20056;-54
2023/09/30 00:56:27;;;;;;;34.47;10.45;;;;;;;;;;6284245;22;20345;-57
2023/09/30 00:58:55;;;;;;;29.60;9.60;;;;;;;;;;6337015;22;20045;-54
2023/09/30 01:01:22;;;;;;;46.85;10.32;;;;;;;;;;6336955;22;20391;-55
2023/09/30 01:03:49;;;;;;;45.72;10.45;;;;;;;;;;6337498;22;20448;-57
2023/09/30 01:06:16;;;;;;;44.00;10.60;;;;;;;;;;6337754;22;20030;-60
2023/09/30 01:08:43;;;;;;;37.30;10.60;;;;;;;;;;6309753;22;20014;-58
2023/09/30 01:11:10;;;;;;;41.28;10.90;;;;;;;;;;6337091;22;20019;-55
2023/09/30 01:13:37;;;;;;;26.92;9.00;;;;;;;;;;6337156;22;20456;-53
2023/09/30 01:16:04;;;;;;;37.65;10.45;;;;;;;;;;6337404;22;20019;-56
2023/09/30 01:18:31;;;;;;;83.72;13.90;;;;;;;;;;6337031;22;20022;-57
2023/09/30 01:21:05;;;;;;;25.42;9.13;;;;;;;;;;6309850;22;20010;-56
2023/09/30 01:23:33;;;;;;;29.50;9.05;;;;;;;;;;6337806;22;20344;-56
2023/09/30 01:26:03;;;;;;;48.00;11.02;;;;;;;;;;6309958;22;20015;-56
2023/09/30 01:28:31;;;;;;;42.03;10.40;;;;;;;;;;6337586;22;20011;-60
2023/09/30 01:30:58;;;;;;;36.20;9.70;;;;;;;;;;6337813;22;20014;-56
2023/09/30 01:33:25;;;;;;;68.38;11.32;;;;;;;;;;6337547;22;20349;-49
2023/09/30 01:35:53;;;;;;;33.28;9.50;;;;;;;;;;6310237;22;20047;-57
2023/09/30 01:38:19;;;;;;;22.00;9.13;;;;;;;;;;6337459;22;20429;-56
2023/09/30 01:40:47;;;;;;;41.40;10.35;;;;;;;;;;6337173;22;20023;-52
2023/09/30 01:43:14;;;;;;;28.05;9.45;;;;;;;;;;6310076;22;20019;-54
2023/09/30 01:45:40;;;;;;;30.73;9.30;;;;;;;;;;6336757;22;20039;-58
2023/09/30 01:48:10;;;;;;;37.33;9.95;;;;;;;;;;6337955;22;20011;-59
2023/09/30 01:50:38;;;;;;;28.58;9.30;;;;;;;;;;6310412;22;20015;-57
2023/09/30 01:53:09;;;;;;;26.92;8.88;;;;;;;;;;6336972;22;20383;-56
2023/09/30 01:55:36;;;;;;;37.60;10.80;;;;;;;;;;6309762;22;20436;-57
2023/09/30 01:58:03;;;;;;;42.25;10.80;;;;;;;;;;6337409;22;20010;-52
2023/09/30 02:03:23;;;;;;;63.78;10.25;;;;;;;;;;6208467;23;20334;-56
2023/09/30 02:05:50;;;;;;;56.80;10.52;;;;;;;;;;6212409;23;20063;-50
2023/09/30 02:08:18;;;;;;;30.13;9.73;;;;;;;;;;6212233;23;20394;-54
2023/09/30 02:10:45;;;;;;;58.50;11.00;;;;;;;;;;6212093;23;20020;-50
2023/09/30 02:13:12;;;;;;;53.30;10.85;;;;;;;;;;6212423;23;20017;-53
2023/09/30 02:15:40;;;;;;;51.42;10.43;;;;;;;;;;6213144;23;20017;-51
2023/09/30 02:18:09;;;;;;;40.40;9.95;;;;;;;;;;6187532;23;20071;-53
2023/09/30 02:20:40;;;;;;;59.72;10.88;;;;;;;;;;6210495;23;20028;-50
2023/09/30 02:23:13;;;;;;;50.05;10.18;;;;;;;;;;6212913;23;20024;-58
2023/09/30 02:25:40;;;;;;;43.53;13.00;;;;;;;;;;6212779;23;20542;-55
2023/09/30 02:28:07;;;;;;;38.42;10.30;;;;;;;;;;6213027;23;20334;-51
2023/09/30 02:30:34;;;;;;;78.45;12.52;;;;;;;;;;6212978;23;20021;-53
2023/09/30 02:33:03;;;;;;;37.30;9.20;;;;;;;;;;6214849;23;20017;-52
2023/09/30 02:35:32;;;;;;;39.33;10.40;;;;;;;;;;6188877;23;20013;-52
2023/09/30 02:38:00;;;;;;;27.33;9.88;;;;;;;;;;6188513;23;20028;-49
2023/09/30 02:40:27;;;;;;;52.40;10.35;;;;;;;;;;6214752;23;20012;-53
2023/09/30 02:42:54;;;;;;;29.48;9.25;;;;;;;;;;6163857;23;20067;-52
2023/09/30 02:45:23;;;;;;;80.13;12.70;;;;;;;;;;6214400;23;20496;-51
2023/09/30 02:47:50;;;;;;;43.00;10.50;;;;;;;;;;6215002;23;20016;-50
2023/09/30 02:50:17;;;;;;;33.25;9.60;;;;;;;;;;6213887;23;20067;-49
2023/09/30 02:52:44;;;;;;;39.35;10.20;;;;;;;;;;6215015;23;20062;-53
2023/09/30 02:55:11;;;;;;;35.13;9.40;;;;;;;;;;6215317;23;20074;-52
2023/09/30 02:57:39;;;;;;;50.28;10.65;;;;;;;;;;6188353;23;20028;-51
2023/09/30 03:00:40;;;;;;;33.30;9.02;;;;;;;;;;6215530;23;20044;-49
2023/09/30 03:03:02;;;;;;;27.17;10.52;;;;;;;;;;6187974;23;20026;-53
2023/09/30 03:05:33;;;;;;;24.13;9.20;;;;;;;;;;6188486;23;20059;-51
2023/09/30 03:08:00;;;;;;;36.45;10.27;;;;;;;;;;6215475;23;20017;-53
2023/09/30 03:10:28;;;;;;;52.92;11.02;;;;;;;;;;6189056;23;20071;-51
2023/09/30 03:12:56;;;;;;;33.83;10.65;;;;;;;;;;6213243;23;20020;-51
2023/09/30 03:15:23;;;;;;;63.85;12.63;;;;;;;;;;6188277;23;20032;-53
2023/09/30 03:17:51;;;;;;;40.28;9.98;;;;;;;;;;6215625;23;20019;-49
2023/09/30 03:20:20;;;;;;;41.25;9.93;;;;;;;;;;6214727;23;20092;-54
2023/09/30 03:22:47;;;;;;;51.70;10.88;;;;;;;;;;6188637;23;20012;-50
2023/09/30 03:25:17;;;;;;;43.45;10.43;;;;;;;;;;6214787;23;20131;-51
2023/09/30 03:27:46;;;;;;;51.10;10.82;;;;;;;;;;6212765;23;20350;-50
2023/09/30 03:30:15;;;;;;;44.35;10.60;;;;;;;;;;6215104;23;20047;-54
2023/09/30 03:32:42;;;;;;;45.58;10.93;;;;;;;;;;6214852;23;20064;-52
2023/09/30 03:35:10;;;;;;;56.25;11.40;;;;;;;;;;6214536;23;20342;-51
2023/09/30 03:37:37;;;;;;;29.88;10.18;;;;;;;;;;6214746;23;20024;-50
2023/09/30 03:40:12;;;;;;;48.85;11.05;;;;;;;;;;6213038;23;20036;-50
2023/09/30 03:42:40;;;;;;;43.95;10.43;;;;;;;;;;6187533;23;20624;-53
2023/09/30 03:45:08;;;;;;;43.17;10.93;;;;;;;;;;6214724;23;20541;-50
2023/09/30 03:47:36;;;;;;;19.00;8.95;;;;;;;;;;6214830;23;20020;-54
2023/09/30 03:50:04;;;;;;;29.48;10.77;;;;;;;;;;6214537;23;20017;-53
2023/09/30 03:52:33;;;;;;;31.25;9.57;;;;;;;;;;6214129;23;20017;-52
2023/09/30 03:55:04;;;;;;;43.97;10.60;;;;;;;;;;6187905;23;20020;-52
2023/09/30 03:57:31;;;;;;;73.75;12.63;;;;;;;;;;6214628;23;20017;-55
2023/09/30 03:59:58;;;;;;;32.65;9.60;;;;;;;;;;6214756;23;20020;-53
2023/09/30 04:02:25;;;;;;;38.30;11.02;;;;;;;;;;6214099;23;20016;-54
2023/09/30 04:04:53;;;;;;;33.15;10.75;;;;;;;;;;6214394;23;20020;-52
2023/09/30 04:07:21;;;;;;;45.20;12.02;;;;;;;;;;6187246;23;20447;-49
2023/09/30 04:09:48;;;;;;;38.55;10.80;;;;;;;;;;6187675;23;20036;-55
2023/09/30 04:12:15;;;;;;;40.13;10.88;;;;;;;;;;6214881;23;20054;-53
2023/09/30 04:14:41;;;;;;;39.03;9.98;;;;;;;;;;6214592;23;20439;-53
2023/09/30 04:17:09;;;;;;;43.90;11.38;;;;;;;;;;6214304;23;20012;-53
2023/09/30 04:19:36;;;;;;;43.22;10.50;;;;;;;;;;6213918;23;20020;-50
2023/09/30 04:22:04;;;;;;;32.58;10.50;;;;;;;;;;6214606;23;20031;-53
2023/09/30 04:24:30;;;;;;;71.75;12.63;;;;;;;;;;6214130;23;20013;-56
2023/09/30 04:27:02;;;;;;;37.15;11.32;;;;;;;;;;6213594;23;20016;-55
2023/09/30 04:29:29;;;;;;;32.13;10.73;;;;;;;;;;6213708;23;20019;-52
2023/09/30 04:31:56;;;;;;;40.70;11.25;;;;;;;;;;6214075;23;20063;-52
2023/09/30 04:34:23;;;;;;;51.92;11.77;;;;;;;;;;6214340;23;20017;-53
2023/09/30 04:36:52;;;;;;;32.83;10.50;;;;;;;;;;6214599;23;20084;-53
2023/09/30 04:39:19;;;;;;;48.42;11.43;;;;;;;;;;6213762;23;20024;-52
2023/09/30 04:41:46;;;;;;;41.40;11.90;;;;;;;;;;6213660;23;20020;-55
2023/09/30 04:44:14;;;;;;;48.22;12.70;;;;;;;;;;6213102;23;20067;-54
2023/09/30 04:46:45;;;;;;;59.55;11.23;;;;;;;;;;6187263;23;20013;-51
2023/09/30 04:49:14;;;;;;;35.17;10.88;;;;;;;;;;6212563;23;20023;-50
2023/09/30 04:51:41;;;;;;;47.10;11.82;;;;;;;;;;6212394;23;20013;-55
2023/09/30 04:54:08;;;;;;;40.80;10.35;;;;;;;;;;6212873;23;20068;-53
2023/09/30 04:56:35;;;;;;;52.63;11.38;;;;;;;;;;6213237;23;20466;-52
2023/09/30 04:59:04;;;;;;;38.40;12.57;;;;;;;;;;6187167;23;20070;-54
2023/09/30 05:01:31;;;;;;;44.85;11.05;;;;;;;;;;6213542;23;20047;-53
2023/09/30 05:03:59;;;;;;;41.67;12.25;;;;;;;;;;6213727;23;20063;-54
2023/09/30 05:06:26;;;;;;;75.18;12.93;;;;;;;;;;6187776;23;20071;-55
2023/09/30 05:08:55;;;;;;;30.83;10.65;;;;;;;;;;6186903;23;20031;-54
2023/09/30 05:11:24;;;;;;;33.30;11.63;;;;;;;;;;6161015;23;20021;-55
2023/09/30 05:14:05;;;;;;;46.50;10.65;;;;;;;;;;6162367;23;20088;-54
2023/09/30 05:16:37;;;;;;;36.03;9.82;;;;;;;;;;6211627;23;20020;-55
2023/09/30 05:19:22;;;;;;;51.75;12.00;;;;;;;;;;6162896;23;20016;-54
2023/09/30 05:22:05;;;;;;;43.38;11.48;;;;;;;;;;6185629;23;20020;-54
2023/09/30 05:24:32;;;;;;;91.28;13.45;;;;;;;;;;6186041;23;20044;-56
2023/09/30 05:26:59;;;;;;;42.33;11.77;;;;;;;;;;6211937;23;20024;-55
2023/09/30 05:29:27;;;;;;;27.30;9.65;;;;;;;;;;6186898;23;20020;-54
2023/09/30 05:31:54;;;;;;;50.50;11.25;;;;;;;;;;6213306;23;20016;-55
2023/09/30 05:34:21;;;;;;;48.40;10.65;;;;;;;;;;6211032;23;20027;-56
2023/09/30 05:36:48;;;;;;;49.95;11.55;;;;;;;;;;6212237;23;20044;-59
2023/09/30 05:39:19;;;;;;;49.78;10.38;;;;;;;;;;6211981;23;20047;-56
2023/09/30 05:41:47;;;;;;;98.13;13.02;;;;;;;;;;6212024;23;20016;-53
2023/09/30 05:44:14;;;;;;;53.05;11.85;;;;;;;;;;6212665;23;20020;-54
2023/09/30 05:46:43;;;;;;;55.28;11.77;;;;;;;;;;6209692;23;20082;-55
2023/09/30 05:49:13;;;;;;;50.25;11.48;;;;;;;;;;6186449;23;20020;-55
2023/09/30 05:51:41;;;;;;;58.38;11.25;;;;;;;;;;6213242;23;20027;-52
2023/09/30 05:54:11;;;;;;;51.10;11.90;;;;;;;;;;6213787;23;20056;-56
2023/09/30 05:56:42;;;;;;;46.22;11.43;;;;;;;;;;6212419;23;20021;-54
2023/09/30 05:59:09;;;;;;;38.92;9.90;;;;;;;;;;6186522;23;20019;-55
2023/09/30 06:01:36;;;;;;;45.42;10.45;;;;;;;;;;6186085;23;20017;-51
2023/09/30 06:04:04;;;;;;;48.03;10.77;;;;;;;;;;6212837;23;20021;-50
2023/09/30 06:06:32;;;;;;;99.35;14.75;;;;;;;;;;6188092;23;20012;-53
2023/09/30 06:08:59;;;;;;;34.38;9.75;;;;;;;;;;6215600;23;20009;-53
2023/09/30 06:11:29;;;;;;;30.08;9.55;;;;;;;;;;6214367;23;20048;-53
2023/09/30 06:14:00;;;;;;;44.92;11.90;;;;;;;;;;6213642;23;20023;-52
2023/09/30 06:16:29;;;;;;;41.33;11.27;;;;;;;;;;6213596;23;20100;-54
2023/09/30 06:18:56;;;;;;;53.75;12.13;;;;;;;;;;6214928;23;20020;-52
2023/09/30 06:21:29;;;;;;;71.80;13.10;;;;;;;;;;6215004;23;20028;-50
2023/09/30 06:23:56;;;;;;;50.13;11.30;;;;;;;;;;6215685;23;20067;-53
2023/09/30 06:26:28;;;;;;;43.90;11.80;;;;;;;;;;6215064;23;20254;-50
2023/09/30 06:28:56;;;;;;;52.60;12.90;;;;;;;;;;6213328;23;20031;-52
2023/09/30 06:31:24;;;;;;;24.58;9.50;;;;;;;;;;6188587;23;20438;-54
2023/09/30 06:33:51;;;;;;;55.05;10.98;;;;;;;;;;6214975;23;20096;-51
2023/09/30 06:36:20;;;;;;;41.35;10.13;;;;;;;;;;6163194;23;20066;-58
2023/09/30 06:38:50;;;;;;;41.97;10.70;;;;;;;;;;6214753;23;20024;-52
2023/09/30 06:41:17;;;;;;;37.63;10.88;;;;;;;;;;6214197;23;20013;-52
2023/09/30 06:43:45;;;;;;;40.35;10.63;;;;;;;;;;6163772;23;20343;-54
2023/09/30 06:46:13;;;;;;;38.25;11.68;;;;;;;;;;6188601;23;20017;-53
2023/09/30 06:48:40;;;;;;;51.20;11.48;;;;;;;;;;6214956;23;20062;-55
2023/09/30 06:51:07;;;;;;;50.47;11.05;;;;;;;;;;6215116;23;20017;-56
2023/09/30 06:53:35;;;;;;;30.55;9.95;;;;;;;;;;6188500;23;20466;-56
2023/09/30 06:56:04;;;;;;;55.15;11.10;;;;;;;;;;6214666;23;20036;-55
2023/09/30 06:58:31;;;;;;;53.90;10.80;;;;;;;;;;6213367;23;20020;-52
2023/09/30 07:00:59;;;;;;;30.50;9.30;;;;;;;;;;6188168;23;20024;-53
2023/09/30 07:03:26;;;;;;;69.28;12.32;;;;;;;;;;6215060;23;20339;-53
2023/09/30 07:05:54;;;;;;;37.15;11.15;;;;;;;;;;6215296;23;20537;-52
2023/09/30 07:08:21;;;;;;;39.53;11.18;;;;;;;;;;6188163;23;20020;-55
2023/09/30 07:10:52;;;;;;;52.38;11.43;;;;;;;;;;6213439;23;20020;-53
2023/09/30 07:13:20;;;;;;;42.10;11.25;;;;;;;;;;6214724;23;20063;-53
2023/09/30 07:15:47;;;;;;;57.28;11.82;;;;;;;;;;6214908;23;20042;-52
2023/09/30 07:18:14;;;;;;;35.55;10.75;;;;;;;;;;6214440;23;20340;-56
2023/09/30 07:20:41;;;;;;;29.70;10.50;;;;;;;;;;6187981;23;20332;-53
2023/09/30 07:23:09;;;;;;;26.27;10.18;;;;;;;;;;6214623;23;20103;-51
2023/09/30 07:25:45;;;;;;;40.70;11.27;;;;;;;;;;6189967;23;20552;-53
2023/09/30 07:28:13;;;;;;;33.58;10.52;;;;;;;;;;6214683;23;20096;-51
2023/09/30 07:30:40;;;;;;;65.03;13.40;;;;;;;;;;6187748;23;20047;-53
2023/09/30 07:33:07;;;;;;;39.47;11.07;;;;;;;;;;6215197;23;20107;-54
2023/09/30 07:35:34;;;;;;;42.70;11.55;;;;;;;;;;6187831;23;20096;-56
2023/09/30 07:38:03;;;;;;;54.80;12.15;;;;;;;;;;6212818;23;20466;-55
2023/09/30 07:40:32;;;;;;;53.05;12.00;;;;;;;;;;6186964;23;20451;-52
2023/09/30 07:42:59;;;;;;;46.03;11.32;;;;;;;;;;6187362;23;20392;-55
2023/09/30 07:45:26;;;;;;;81.85;13.02;;;;;;;;;;6214099;23;20024;-56
2023/09/30 07:47:58;;;;;;;36.03;10.63;;;;;;;;;;6163788;23;20044;-56
2023/09/30 07:50:25;;;;;;;36.63;11.18;;;;;;;;;;6214232;23;20032;-55
2023/09/30 07:52:52;;;;;;;46.33;10.63;;;;;;;;;;6187430;23;20021;-55
2023/09/30 07:55:19;;;;;;;37.25;11.05;;;;;;;;;;6214435;23;20044;-51
2023/09/30 07:57:46;;;;;;;43.67;11.10;;;;;;;;;;6214153;23;20013;-50
2023/09/30 08:00:16;;;;;;;57.88;12.65;;;;;;;;;;6214250;23;20020;-56
2023/09/30 08:02:44;;;;;;;46.95;11.63;;;;;;;;;;6213856;23;20023;-57
2023/09/30 08:05:12;;;;;;;38.75;12.23;;;;;;;;;;6188061;23;20031;-54
2023/09/30 08:07:39;;;;;;;51.97;12.13;;;;;;;;;;6187344;23;20037;-52
2023/09/30 08:10:12;;;;;;;39.75;10.32;;;;;;;;;;6213425;23;20016;-55
2023/09/30 08:12:39;;;;;;;;;;;;;;;;;;6212939;23;20024;-54
2023/09/30 08:15:07;;;;;;;54.35;11.43;;;;;;;;;;6214313;23;19915;-52
2023/09/30 08:17:34;;;;;;;41.30;11.27;;;;;;;;;;6186981;23;20012;-55
2023/09/30 08:20:04;;;;;;;38.75;11.77;;;;;;;;;;6213990;23;20095;-55
2023/09/30 08:22:31;;;;;;;61.55;13.52;;;;;;;;;;6187199;23;20435;-57
2023/09/30 08:24:58;;;;;;;54.97;12.82;;;;;;;;;;6213247;23;20017;-55
2023/09/30 08:27:26;;;;;;;73.97;13.52;;;;;;;;;;6187143;23;20012;-55
2023/09/30 08:29:53;;;;;;;42.90;11.98;;;;;;;;;;6213992;23;20020;-53
2023/09/30 08:32:21;;;;;;;46.33;12.00;;;;;;;;;;6213543;23;20027;-57
2023/09/30 08:34:48;;;;;;;23.48;10.65;;;;;;;;;;6187646;23;20320;-54
2023/09/30 08:37:15;;;;;;;41.88;12.27;;;;;;;;;;6212295;23;20017;-53
2023/09/30 08:39:42;;;;;;;46.33;11.95;;;;;;;;;;6214106;23;20334;-56
2023/09/30 08:42:13;;;;;;;40.13;11.13;;;;;;;;;;6187693;23;20025;-53
2023/09/30 08:44:41;;;;;;;33.80;12.25;;;;;;;;;;6213527;23;20017;-55
2023/09/30 08:47:10;;;;;;;36.25;11.35;;;;;;;;;;6213717;23;20013;-54
2023/09/30 08:49:38;;;;;;;46.05;12.07;;;;;;;;;;6187645;23;20020;-52
2023/09/30 08:52:05;;;;;;;43.40;12.02;;;;;;;;;;6212036;23;20021;-56
2023/09/30 08:54:32;;;;;;;77.05;14.32;;;;;;;;;;6187981;23;20052;-53
2023/09/30 08:57:00;;;;;;;36.88;11.55;;;;;;;;;;6214057;23;20016;-58
2023/09/30 08:59:27;;;;;;;31.75;11.48;;;;;;;;;;6187350;23;20056;-53
2023/09/30 09:01:54;;;;;;;45.88;13.73;;;;;;;;;;6213848;23;20028;-57
2023/09/30 09:04:20;;;;;;;37.17;12.75;;;;;;;;;;6213978;23;20083;-53
2023/09/30 09:06:48;;;;;;;57.33;13.35;;;;;;;;;;6214007;23;20024;-56
2023/09/30 09:09:16;;;;;;;35.33;12.45;;;;;;;;;;6213716;23;20047;-55
2023/09/30 09:11:44;;;;;;;42.15;12.82;;;;;;;;;;6213605;23;20012;-55
2023/09/30 09:14:11;;;;;;;41.95;13.13;;;;;;;;;;6161936;23;20013;-55
2023/09/30 09:16:50;;;;;;;50.45;14.15;;;;;;;;;;6186817;23;20017;-51
2023/09/30 09:19:17;;;;;;;39.70;13.15;;;;;;;;;;6187004;23;20067;-54
2023/09/30 09:21:57;;;;;;;49.67;12.05;;;;;;;;;;6213513;23;20055;-57
2023/09/30 09:24:28;;;;;;;43.88;13.25;;;;;;;;;;6187900;23;20020;-55
2023/09/30 09:27:16;;;;;;;35.05;12.27;;;;;;;;;;6212727;23;20019;-54
2023/09/30 09:29:45;;;;;;;36.22;12.35;;;;;;;;;;6187464;23;20016;-56
2023/09/30 09:32:15;;;;;;;37.72;13.45;;;;;;;;;;6213941;23;20071;-55
2023/09/30 09:34:59;;;;;;;57.22;14.68;;;;;;;;;;6214001;23;20017;-54
2023/09/30 09:37:26;;;;;;;33.65;13.82;;;;;;;;;;6214117;23;20020;-57
2023/09/30 09:39:55;;;;;;;42.97;14.00;;;;;;;;;;6213797;23;20016;-56
2023/09/30 09:42:24;;;;;;;39.38;13.45;;;;;;;;;;6162772;23;20016;-59
2023/09/30 09:44:52;;;;;;;24.20;13.15;;;;;;;;;;6214200;23;20032;-53
2023/09/30 09:47:20;;;;;;;34.35;12.85;;;;;;;;;;6213882;23;20043;-55
2023/09/30 09:49:47;;;;;;;37.47;13.95;;;;;;;;;;6213959;23;20062;-57
2023/09/30 09:52:15;;;;;;;29.58;13.50;;;;;;;;;;6213912;23;20091;-54
2023/09/30 09:54:43;;;;;;;61.33;15.82;;;;;;;;;;6213567;23;20439;-57
2023/09/30 09:57:10;;;;;;;35.00;13.63;;;;;;;;;;6214261;23;20066;-55
2023/09/30 09:59:36;;;;;;;49.67;15.07;;;;;;;;;;6213884;23;20423;-51
2023/09/30 10:02:09;;;;;;;35.03;14.05;;;;;;;;;;6213692;23;20028;-57
2023/09/30 10:04:37;;;;;;;79.30;17.73;;;;;;;;;;6186572;23;20040;-55
2023/09/30 10:07:05;;;;;;;50.38;15.70;;;;;;;;;;6213624;23;20573;-57
2023/09/30 10:09:34;;;;;;;75.53;16.63;;;;;;;;;;6212329;23;20096;-56
2023/09/30 10:12:02;;;;;;;33.45;13.65;;;;;;;;;;6212571;23;20350;-56
2023/09/30 10:14:33;;;;;;;33.13;13.52;;;;;;;;;;6211791;23;20017;-52
2023/09/30 10:17:01;;;;;;;42.22;14.38;;;;;;;;;;6213768;23;20024;-54
2023/09/30 10:19:29;;;;;;;45.38;14.48;;;;;;;;;;6187156;23;20020;-56
2023/09/30 10:22:14;;;;;;;43.33;14.20;;;;;;;;;;6213921;23;20024;-51
2023/09/30 10:24:41;;;;;;;62.35;16.27;;;;;;;;;;6213910;23;20038;-55
2023/09/30 10:27:20;;;;;;;48.65;14.98;;;;;;;;;;6213990;23;20021;-54
2023/09/30 10:29:47;;;;;;;42.83;13.93;;;;;;;;;;6213512;23;20017;-53
2023/09/30 10:32:14;;;;;;;30.23;13.75;;;;;;;;;;6212425;23;20021;-54
2023/09/30 10:34:59;;;;;;;46.03;14.48;;;;;;;;;;6213695;23;20059;-56
2023/09/30 10:37:25;;;;;;;48.55;14.00;;;;;;;;;;6213846;23;20063;-53
2023/09/30 10:39:56;;;;;;;36.78;12.75;;;;;;;;;;6213787;23;20016;-56
2023/09/30 10:42:41;;;;;;;36.35;11.30;;;;;;;;;;6213807;23;20104;-55
2023/09/30 10:45:28;;;;;;;38.00;10.23;;;;;;;;;;6187504;23;20382;-54
2023/09/30 10:47:55;;;;;;;27.27;9.75;;;;;;;;;;6213587;23;20059;-56
2023/09/30 10:50:46;;;;;;;28.33;9.38;;;;;;;;;;6213203;23;20091;-54
2023/09/30 10:53:13;;;;;;;39.20;8.60;;;;;;;;;;6187721;23;20040;-53
2023/09/30 10:55:42;;;;;;;42.40;9.52;;;;;;;;;;6188284;23;20013;-57
2023/09/30 10:58:09;;;;;;;36.83;8.35;;;;;;;;;;6188641;23;20515;-55
2023/09/30 11:00:38;;;;;;;62.50;7.65;;;;;;;;;;6188669;23;20013;-55
2023/09/30 11:03:05;;;;;;;26.10;5.65;;;;;;;;;;6188729;23;20025;-54
2023/09/30 11:05:34;;;;;;;23.88;4.70;;;;;;;;;;6188709;23;20040;-54
2023/09/30 11:08:22;;;;;;;9.05;3.70;;;;;;;;;;6215259;23;20446;-53
2023/09/30 11:10:54;;;;;;;39.65;5.30;;;;;;;;;;6163535;23;20017;-52
2023/09/30 11:13:20;;;;;;;14.30;3.83;;;;;;;;;;6213807;23;20755;-54
2023/09/30 11:15:47;;;;;;;44.83;5.78;;;;;;;;;;6188528;23;20043;-52
2023/09/30 11:18:14;;;;;;;23.08;3.95;;;;;;;;;;6215362;23;20013;-54
2023/09/30 11:20:41;;;;;;;21.58;3.60;;;;;;;;;;6188631;23;20023;-54
2023/09/30 11:23:08;;;;;;;30.00;4.60;;;;;;;;;;6214873;23;20039;-62
2023/09/30 11:25:37;;;;;;;35.72;5.25;;;;;;;;;;6214957;23;20017;-56
2023/09/30 11:28:16;;;;;;;25.88;4.30;;;;;;;;;;6215058;23;20017;-56
2023/09/30 11:30:56;;;;;;;46.83;5.18;;;;;;;;;;6188535;23;20020;-54
2023/09/30 11:33:24;;;;;;;20.17;3.15;;;;;;;;;;6213722;23;20447;-57
2023/09/30 11:36:05;;;;;;;23.50;3.47;;;;;;;;;;6213724;23;20512;-58
2023/09/30 11:38:33;;;;;;;19.40;3.40;;;;;;;;;;6188421;23;20024;-56
2023/09/30 11:41:03;;;;;;;40.40;4.63;;;;;;;;;;6214705;23;20021;-54
2023/09/30 11:43:34;;;;;;;35.55;3.92;;;;;;;;;;6214458;23;20023;-53
2023/09/30 11:46:11;;;;;;;44.40;4.82;;;;;;;;;;6212911;23;20031;-55
2023/09/30 11:48:39;;;;;;;79.85;6.82;;;;;;;;;;6214562;23;20020;-59
2023/09/30 11:51:06;;;;;;;28.02;3.63;;;;;;;;;;6213287;23;20066;-50
2023/09/30 11:53:35;;;;;;;43.53;4.70;;;;;;;;;;6214246;23;20012;-55
2023/09/30 11:56:07;;;;;;;54.08;5.25;;;;;;;;;;6187404;23;20019;-57
2023/09/30 11:58:34;;;;;;;43.70;4.35;;;;;;;;;;6187809;23;20016;-56
2023/09/30 12:01:01;;;;;;;39.97;4.40;;;;;;;;;;6187532;23;20521;-54
2023/09/30 12:03:28;;;;;;;62.42;6.18;;;;;;;;;;6214025;23;20536;-55
2023/09/30 12:05:57;;;;;;;27.63;3.70;;;;;;;;;;6214314;23;20067;-56
2023/09/30 12:08:24;;;;;;;43.78;4.28;;;;;;;;;;6187273;23;20527;-55
2023/09/30 12:10:52;;;;;;;40.80;4.72;;;;;;;;;;6211461;23;20020;-57
2023/09/30 12:13:18;;;;;;;18.63;3.20;;;;;;;;;;6187157;23;20020;-54
2023/09/30 12:15:45;;;;;;;59.67;5.50;;;;;;;;;;6213595;23;20012;-53
2023/09/30 12:18:18;;;;;;;28.23;3.80;;;;;;;;;;6187659;23;20016;-54
2023/09/30 12:20:46;;;;;;;33.50;4.28;;;;;;;;;;6213021;23;20019;-51
2023/09/30 12:23:13;;;;;;;40.60;4.90;;;;;;;;;;6213242;23;20091;-56
2023/09/30 12:25:40;;;;;;;35.65;4.35;;;;;;;;;;6187300;23;20099;-54
2023/09/30 12:28:07;;;;;;;36.08;4.93;;;;;;;;;;6161942;23;20016;-56
2023/09/30 12:30:34;;;;;;;66.95;6.57;;;;;;;;;;6213524;23;20082;-57
2023/09/30 12:33:01;;;;;;;30.38;4.45;;;;;;;;;;6214259;23;20024;-57
2023/09/30 12:35:28;;;;;;;34.95;5.25;;;;;;;;;;6187331;23;20022;-55
2023/09/30 12:37:55;;;;;;;45.85;5.53;;;;;;;;;;6187476;23;20043;-54
2023/09/30 12:40:22;;;;;;;22.73;3.53;;;;;;;;;;6213913;23;20021;-55
2023/09/30 12:42:49;;;;;;;35.38;4.03;;;;;;;;;;6187172;23;20071;-57
2023/09/30 12:45:17;;;;;;;23.67;3.75;;;;;;;;;;6214762;23;20017;-53
2023/09/30 12:47:45;;;;;;;35.10;3.92;;;;;;;;;;6187295;23;20016;-54
2023/09/30 12:50:12;;;;;;;25.75;3.50;;;;;;;;;;6187267;23;20074;-54
2023/09/30 12:52:39;;;;;;;54.42;4.68;;;;;;;;;;6213534;23;20100;-55
2023/09/30 12:55:06;;;;;;;32.42;3.47;;;;;;;;;;6214023;23;20439;-53
2023/09/30 12:57:32;;;;;;;39.92;4.65;;;;;;;;;;6214149;23;20020;-57
2023/09/30 12:59:59;;;;;;;26.40;3.70;;;;;;;;;;6214618;23;20040;-51
2023/09/30 13:02:26;;;;;;;28.63;3.72;;;;;;;;;;6214254;23;20027;-51
2023/09/30 13:04:54;;;;;;;32.13;3.75;;;;;;;;;;6214301;23;20342;-54
2023/09/30 13:07:21;;;;;;;31.05;4.03;;;;;;;;;;6214073;23;20016;-55
2023/09/30 13:09:47;;;;;;;43.92;4.85;;;;;;;;;;6213616;23;20482;-53
2023/09/30 13:12:14;;;;;;;26.27;4.10;;;;;;;;;;6188191;23;20017;-56
2023/09/30 13:14:41;;;;;;;32.90;4.25;;;;;;;;;;6213827;23;20324;-55
2023/09/30 13:17:07;;;;;;;41.33;4.15;;;;;;;;;;6213668;23;20016;-55
2023/09/30 13:19:37;;;;;;;31.17;3.90;;;;;;;;;;6214181;23;20036;-53
2023/09/30 13:22:03;;;;;;;22.42;3.50;;;;;;;;;;6214235;23;20020;-56
2023/09/30 13:24:45;;;;;;;46.85;4.65;;;;;;;;;;6214100;23;20024;-55
2023/09/30 13:27:15;;;;;;;20.40;2.92;;;;;;;;;;6214474;23;20451;-56
2023/09/30 13:29:42;;;;;;;24.70;3.35;;;;;;;;;;6213978;23;20024;-56
2023/09/30 13:32:11;;;;;;;17.20;2.90;;;;;;;;;;6214169;23;20031;-54
2023/09/30 13:34:38;;;;;;;28.20;3.95;;;;;;;;;;6187700;23;20443;-55
2023/09/30 13:37:05;;;;;;;35.72;4.53;;;;;;;;;;6213617;23;20017;-53
2023/09/30 13:39:33;;;;;;;47.13;4.55;;;;;;;;;;6214141;23;20025;-55
2023/09/30 13:42:00;;;;;;;27.05;3.83;;;;;;;;;;6212650;23;20075;-52
2023/09/30 13:44:27;;;;;;;27.17;4.35;;;;;;;;;;6213021;23;20087;-55
2023/09/30 13:46:54;;;;;;;36.60;4.32;;;;;;;;;;6212574;23;20021;-61
2023/09/30 13:49:22;;;;;;;20.95;3.22;;;;;;;;;;6212996;23;20451;-57
2023/09/30 13:51:49;;;;;;;36.00;4.15;;;;;;;;;;6214073;23;20468;-55
2023/09/30 13:54:17;;;;;;;31.15;4.35;;;;;;;;;;6211479;23;20012;-53
2023/09/30 13:56:44;;;;;;;40.22;3.92;;;;;;;;;;6212580;23;20466;-55
2023/09/30 13:59:11;;;;;;;43.75;4.45;;;;;;;;;;6186581;23;20047;-57
2023/09/30 14:01:41;;;;;;;33.63;4.32;;;;;;;;;;6213025;23;20013;-54
2023/09/30 14:04:09;;;;;;;50.33;4.68;;;;;;;;;;6213267;23;20021;-53
2023/09/30 14:06:38;;;;;;;50.33;4.78;;;;;;;;;;6186459;23;20020;-50
2023/09/30 14:09:05;;;;;;;26.83;3.50;;;;;;;;;;6213725;23;20092;-54
2023/09/30 14:11:35;;;;;;;32.67;3.67;;;;;;;;;;6213304;23;20072;-57
2023/09/30 14:14:02;;;;;;;24.65;3.70;;;;;;;;;;6213805;23;20070;-57
2023/09/30 14:16:29;;;;;;;43.75;4.57;;;;;;;;;;6187030;23;20032;-54
2023/09/30 14:18:56;;;;;;;45.00;4.35;;;;;;;;;;6187509;23;20017;-57
2023/09/30 14:21:24;;;;;;;26.48;4.30;;;;;;;;;;6212530;23;20062;-54
2023/09/30 14:23:50;;;;;;;35.40;5.82;;;;;;;;;;6213900;23;20024;-54
2023/09/30 14:26:17;;;;;;;17.40;2.75;;;;;;;;;;6213675;23;20075;-53
2023/09/30 14:28:44;;;;;;;17.60;3.03;;;;;;;;;;6215549;23;20009;-54
2023/09/30 14:31:11;;;;;;;35.28;3.70;;;;;;;;;;6188909;23;20013;-56
2023/09/30 14:33:38;;;;;;;46.03;4.53;;;;;;;;;;6215886;23;20044;-54
2023/09/30 14:36:07;;;;;;;18.55;3.10;;;;;;;;;;6216044;23;20013;-53